Time;durP1;ratioP1;P1;durP2;ratioP2;P2;SDS_P1;SDS_P2;PMS_P1;PMS_P2;Temp;Humidity;BMP_temperature;BMP_pressure;BME280_temperature;BME280_humidity;BME280_pressure;Samples;Min_cycle;Max_cycle;Signal;HPM_P1;HPM_P2
2021/08/10 00:00:04;;;;;;;5.90;2.95;;;26.20;96.70;;;;;;4985470;28;20047;-74
2021/08/10 00:02:37;;;;;;;6.45;2.60;;;26.20;96.70;;;;;;4984539;28;20053;-73
2021/08/10 00:05:08;;;;;;;5.10;2.90;;;26.20;96.70;;;;;;4986773;28;20047;-74
2021/08/10 00:07:37;;;;;;;5.32;2.75;;;26.10;96.70;;;;;;4983869;28;20042;-73
2021/08/10 00:10:06;;;;;;;3.88;2.80;;;26.00;96.70;;;;;;4979995;28;20523;-73
2021/08/10 00:12:34;;;;;;;6.18;2.70;;;26.10;96.70;;;;;;4984903;28;20116;-73
2021/08/10 00:15:03;;;;;;;6.15;2.75;;;26.00;96.70;;;;;;4993876;28;20054;-73
2021/08/10 00:17:31;;;;;;;4.57;2.58;;;25.90;96.70;;;;;;4983595;28;20106;-73
2021/08/10 00:20:00;;;;;;;4.50;2.40;;;26.00;96.70;;;;;;4979908;28;20039;-73
2021/08/10 00:22:30;;;;;;;5.50;2.75;;;26.10;96.70;;;;;;4987392;28;20081;-73
2021/08/10 00:24:58;;;;;;;5.47;2.72;;;25.90;96.70;;;;;;4984956;28;20066;-73
2021/08/10 00:27:26;;;;;;;3.33;2.58;;;25.80;96.70;;;;;;4988300;28;20053;-73
2021/08/10 00:29:54;;;;;;;3.58;2.45;;;25.80;96.70;;;;;;4987382;28;20053;-74
2021/08/10 00:32:23;;;;;;;7.57;3.20;;;25.90;96.70;;;;;;4990210;28;20129;-74
2021/08/10 00:34:53;;;;;;;5.88;2.47;;;25.60;96.70;;;;;;4975415;28;20051;-74
2021/08/10 00:37:22;;;;;;;6.63;2.85;;;25.50;96.70;;;;;;4995606;28;20396;-74
2021/08/10 00:39:53;;;;;;;7.28;3.08;;;25.40;96.70;;;;;;4987758;28;20695;-74
2021/08/10 00:42:29;;;;;;;4.82;3.15;;;25.40;96.70;;;;;;4993712;28;20440;-74
2021/08/10 00:44:58;;;;;;;5.20;3.15;;;25.50;96.70;;;;;;4978872;28;20046;-74
2021/08/10 00:47:31;;;;;;;6.10;3.22;;;25.40;96.70;;;;;;4980536;28;20043;-74
2021/08/10 00:50:00;;;;;;;7.40;3.10;;;25.40;96.70;;;;;;4976677;28;20138;-74
2021/08/10 00:52:31;;;;;;;6.85;3.40;;;25.40;96.70;;;;;;4967823;28;20049;-74
2021/08/10 00:55:03;;;;;;;9.18;3.30;;;25.10;96.70;;;;;;4987822;28;20096;-74
2021/08/10 00:57:31;;;;;;;7.78;2.97;;;25.20;96.70;;;;;;4999587;28;20201;-74
2021/08/10 01:00:00;;;;;;;7.43;3.10;;;25.30;96.70;;;;;;4978719;28;20799;-73
2021/08/10 01:02:31;;;;;;;7.78;3.97;;;25.30;96.70;;;;;;4974032;28;20054;-74
2021/08/10 01:05:01;;;;;;;4.90;2.88;;;25.30;96.70;;;;;;4983050;28;20595;-74
2021/08/10 01:07:39;;;;;;;6.70;3.28;;;25.00;96.70;;;;;;4983576;28;20059;-74
2021/08/10 01:10:18;;;;;;;7.65;3.38;;;25.00;96.70;;;;;;4989615;28;20046;-74
2021/08/10 01:12:54;;;;;;;6.15;3.22;;;25.00;96.70;;;;;;4982341;28;20108;-74
2021/08/10 01:15:26;;;;;;;6.38;2.90;;;25.00;96.70;;;;;;4985862;28;20045;-74
2021/08/10 01:17:59;;;;;;;4.63;2.55;;;25.00;96.70;;;;;;4981729;28;20050;-75
2021/08/10 01:21:03;;;;;;;5.72;2.80;;;25.00;96.70;;;;;;4980990;28;20090;-74
2021/08/10 01:23:34;;;;;;;8.93;3.22;;;25.20;96.70;;;;;;4978040;28;21824;-74
2021/08/10 01:26:17;;;;;;;4.32;2.63;;;25.10;96.70;;;;;;4988837;28;20061;-74
2021/08/10 01:28:52;;;;;;;6.70;3.10;;;25.30;96.70;;;;;;4984485;28;20414;-74
2021/08/10 01:31:32;;;;;;;4.20;2.80;;;25.30;96.70;;;;;;4990893;28;20047;-75
2021/08/10 01:34:14;;;;;;;7.50;3.35;;;25.30;96.70;;;;;;4988977;28;20507;-75
2021/08/10 01:36:45;;;;;;;4.87;3.07;;;25.20;96.70;;;;;;4976486;28;20078;-74
2021/08/10 01:39:15;;;;;;;9.40;3.67;;;25.10;96.70;;;;;;4981650;28;20049;-74
2021/08/10 01:42:02;;;;;;;3.35;2.58;;;25.10;96.70;;;;;;4986410;28;20054;-74
2021/08/10 01:44:33;;;;;;;7.55;3.65;;;24.90;96.70;;;;;;4985311;28;20043;-74
2021/08/10 01:47:10;;;;;;;3.53;2.63;;;24.90;96.70;;;;;;4981213;28;20062;-74
2021/08/10 01:49:42;;;;;;;7.72;3.38;;;25.00;96.70;;;;;;4984836;28;20077;-74
2021/08/10 01:52:18;;;;;;;6.28;3.15;;;25.00;96.70;;;;;;4974958;28;20054;-74
2021/08/10 01:54:51;;;;;;;4.70;2.90;;;24.90;96.70;;;;;;4986092;28;20042;-74
2021/08/10 01:57:19;;;;;;;6.53;3.10;;;25.00;96.70;;;;;;4972254;28;20074;-74
2021/08/10 01:59:51;;;;;;;5.95;3.00;;;25.00;96.70;;;;;;4985902;28;20509;-74
2021/08/10 02:02:23;;;;;;;6.57;3.03;;;25.10;96.70;;;;;;4985950;28;20498;-74
2021/08/10 02:05:08;;;;;;;7.00;3.15;;;25.10;96.70;;;;;;4995861;28;20073;-74
2021/08/10 02:07:37;;;;;;;6.60;3.33;;;25.00;96.70;;;;;;4968735;28;20074;-74
2021/08/10 02:10:09;;;;;;;4.28;3.00;;;25.00;96.70;;;;;;4974892;28;20039;-74
2021/08/10 02:12:38;;;;;;;5.53;2.97;;;24.70;96.70;;;;;;4987509;28;20583;-74
2021/08/10 02:15:07;;;;;;;6.80;3.10;;;24.70;96.70;;;;;;4990008;28;20092;-74
2021/08/10 02:17:49;;;;;;;5.00;2.80;;;24.70;96.70;;;;;;4986935;28;20070;-74
2021/08/10 02:20:30;;;;;;;8.40;3.85;;;24.80;96.70;;;;;;4982192;28;20053;-74
2021/08/10 02:22:59;;;;;;;13.23;4.00;;;24.90;96.70;;;;;;4985527;28;20089;-74
2021/08/10 02:25:28;;;;;;;7.78;3.53;;;24.90;96.70;;;;;;4960564;28;20050;-74
2021/08/10 02:28:07;;;;;;;6.20;3.28;;;24.90;96.70;;;;;;4995798;28;20146;-74
2021/08/10 02:30:43;;;;;;;5.40;3.17;;;24.90;96.70;;;;;;4982074;28;20102;-73
2021/08/10 02:33:15;;;;;;;7.28;2.90;;;24.90;96.70;;;;;;4987450;28;20049;-75
2021/08/10 02:35:49;;;;;;;5.25;2.80;;;24.90;96.70;;;;;;4978515;28;20049;-75
2021/08/10 02:38:20;;;;;;;5.53;2.97;;;24.90;96.70;;;;;;4986300;28;20052;-76
2021/08/10 02:40:55;;;;;;;3.70;2.60;;;25.00;96.70;;;;;;4980560;28;20062;-75
2021/08/10 02:43:28;;;;;;;6.90;3.13;;;25.00;96.70;;;;;;4981363;28;20053;-75
2021/08/10 02:45:58;;;;;;;4.75;2.67;;;25.00;96.70;;;;;;4970357;28;20074;-75
2021/08/10 02:48:32;;;;;;;5.57;2.90;;;24.90;96.70;;;;;;4990303;28;20050;-75
2021/08/10 02:51:03;;;;;;;4.80;3.05;;;24.90;96.70;;;;;;4986877;28;20524;-75
2021/08/10 02:53:31;;;;;;;7.75;3.28;;;25.00;96.70;;;;;;4969845;28;20042;-75
2021/08/10 02:56:09;;;;;;;4.63;2.60;;;25.00;96.70;;;;;;4985224;28;20374;-75
2021/08/10 02:58:45;;;;;;;6.30;2.90;;;24.90;96.70;;;;;;4981273;28;20630;-75
2021/08/10 03:01:18;;;;;;;4.78;2.78;;;24.90;96.70;;;;;;4989782;28;20061;-75
2021/08/10 03:03:50;;;;;;;7.22;3.28;;;24.90;96.70;;;;;;4975666;28;20082;-75
2021/08/10 03:06:18;;;;;;;5.85;3.50;;;25.00;96.70;;;;;;4986096;28;20146;-75
2021/08/10 03:08:54;;;;;;;6.18;3.33;;;24.90;96.70;;;;;;4983377;28;20054;-75
2021/08/10 03:11:23;;;;;;;7.70;3.20;;;24.70;96.70;;;;;;4996256;28;20371;-76
2021/08/10 03:13:53;;;;;;;4.82;3.22;;;24.60;96.70;;;;;;4961954;28;20043;-75
2021/08/10 03:16:25;;;;;;;4.72;3.20;;;24.60;96.70;;;;;;4957815;28;20436;-75
2021/08/10 03:19:00;;;;;;;8.98;3.08;;;24.60;96.70;;;;;;4978502;28;20073;-75
2021/08/10 03:21:30;;;;;;;9.10;3.70;;;24.60;96.70;;;;;;4967917;28;20511;-75
2021/08/10 03:24:02;;;;;;;7.60;3.13;;;24.40;96.70;;;;;;4980343;28;20061;-75
2021/08/10 03:26:32;;;;;;;6.78;3.65;;;24.30;96.70;;;;;;4975748;28;20105;-75
2021/08/10 03:29:03;;;;;;;7.00;4.80;;;24.40;96.70;;;;;;4976306;28;20057;-75
2021/08/10 03:31:32;;;;;;;9.27;4.97;;;24.50;96.70;;;;;;4989558;28;20092;-75
2021/08/10 03:34:02;;;;;;;9.63;4.78;;;24.50;96.70;;;;;;4973370;28;20521;-75
2021/08/10 03:36:31;;;;;;;9.48;5.32;;;24.40;96.70;;;;;;4981185;28;20157;-75
2021/08/10 03:39:00;;;;;;;6.35;5.43;;;24.50;96.70;;;;;;4984666;28;20050;-75
2021/08/10 03:41:29;;;;;;;7.82;5.95;;;24.50;96.70;;;;;;4974859;28;20058;-75
2021/08/10 03:43:58;;;;;;;6.22;4.65;;;24.40;96.70;;;;;;4986699;28;20075;-75
2021/08/10 03:46:30;;;;;;;10.93;7.97;;;24.30;96.70;;;;;;4971798;28;20104;-75
2021/08/10 03:49:03;;;;;;;11.32;8.02;;;24.00;96.70;;;;;;4987348;28;20532;-75
2021/08/10 03:51:34;;;;;;;10.82;8.40;;;23.90;96.70;;;;;;4974544;28;20051;-75
2021/08/10 03:54:04;;;;;;;20.02;10.80;;;24.10;96.70;;;;;;4981967;28;20507;-75
2021/08/10 03:56:33;;;;;;;14.27;9.52;;;24.20;96.70;;;;;;4980130;28;20054;-75
2021/08/10 03:59:02;;;;;;;12.57;8.93;;;24.20;96.70;;;;;;4978455;28;20519;-75
2021/08/10 04:01:35;;;;;;;11.00;7.78;;;24.20;96.70;;;;;;4979246;28;20043;-75
2021/08/10 04:04:08;;;;;;;10.15;6.75;;;24.10;96.70;;;;;;4988990;28;20051;-75
2021/08/10 04:06:39;;;;;;;12.38;6.85;;;24.10;96.70;;;;;;4975028;28;20523;-75
2021/08/10 04:09:37;;;;;;;9.60;6.35;;;24.20;96.70;;;;;;4993936;28;20049;-75
2021/08/10 04:12:11;;;;;;;9.90;6.13;;;24.20;96.70;;;;;;4980905;28;20053;-75
2021/08/10 04:14:53;;;;;;;10.93;6.55;;;24.30;96.70;;;;;;4973244;28;20375;-75
2021/08/10 04:17:26;;;;;;;11.85;6.20;;;24.30;96.70;;;;;;4986252;28;20065;-75
2021/08/10 04:19:59;;;;;;;9.25;4.93;;;24.30;96.70;;;;;;4998095;28;20078;-75
2021/08/10 04:22:28;;;;;;;10.80;5.13;;;24.30;96.70;;;;;;4990002;28;20561;-75
2021/08/10 04:24:59;;;;;;;9.88;5.35;;;24.30;96.70;;;;;;4984222;28;20051;-75
2021/08/10 04:27:28;;;;;;;10.85;4.97;;;24.30;96.70;;;;;;4981649;28;20058;-75
2021/08/10 04:30:00;;;;;;;7.88;4.85;;;24.20;96.70;;;;;;4992381;28;20054;-76
2021/08/10 04:32:31;;;;;;;6.85;4.38;;;24.30;96.70;;;;;;4978693;28;20054;-75
2021/08/10 04:35:04;;;;;;;5.15;4.35;;;24.20;96.70;;;;;;4980734;28;20125;-75
2021/08/10 04:37:32;;;;;;;7.13;4.78;;;24.20;96.70;;;;;;4989412;28;20050;-75
2021/08/10 04:40:02;;;;;;;7.45;4.55;;;24.20;96.70;;;;;;4983564;28;20049;-75
2021/08/10 04:42:59;;;;;;;;;;;24.20;96.70;;;;;;4981933;28;20575;-75
2021/08/10 04:45:29;;;;;;;6.95;3.65;;;24.20;96.70;;;;;;4997889;28;20074;-75
2021/08/10 04:47:59;;;;;;;6.72;4.20;;;24.00;96.70;;;;;;4987341;28;20068;-75
2021/08/10 04:50:29;;;;;;;7.10;3.28;;;24.00;96.70;;;;;;4976502;28;20039;-75
2021/08/10 04:53:00;;;;;;;6.20;3.42;;;24.00;96.70;;;;;;4989712;28;20065;-75
2021/08/10 04:55:29;;;;;;;7.40;4.03;;;24.00;96.70;;;;;;4983023;28;20573;-75
2021/08/10 04:57:57;;;;;;;6.57;3.70;;;23.90;96.70;;;;;;4984556;28;20042;-75
2021/08/10 05:00:29;;;;;;;6.32;3.60;;;23.80;96.70;;;;;;4958800;28;20046;-75
2021/08/10 05:02:59;;;;;;;6.35;4.22;;;23.70;96.70;;;;;;4994974;28;20056;-75
2021/08/10 05:05:31;;;;;;;8.02;3.72;;;23.60;96.70;;;;;;4964825;28;20039;-75
2021/08/10 05:08:00;;;;;;;9.02;4.10;;;23.50;96.70;;;;;;4956528;28;20093;-75
2021/08/10 05:10:28;;;;;;;9.75;4.07;;;23.60;96.70;;;;;;4985015;28;20035;-75
2021/08/10 05:12:58;;;;;;;6.22;3.47;;;23.70;96.70;;;;;;4982025;28;20050;-75
2021/08/10 05:15:28;;;;;;;6.43;3.38;;;23.80;96.70;;;;;;4992435;28;20515;-76
2021/08/10 05:17:57;;;;;;;6.85;3.38;;;23.80;96.70;;;;;;4978460;28;20051;-75
2021/08/10 05:20:32;;;;;;;6.03;3.40;;;23.90;96.70;;;;;;4990712;28;20053;-76
2021/08/10 05:23:01;;;;;;;6.45;3.80;;;23.90;96.70;;;;;;4978151;28;20043;-76
2021/08/10 05:25:31;;;;;;;5.13;3.25;;;24.00;96.70;;;;;;4975203;28;20154;-75
2021/08/10 05:28:02;;;;;;;8.45;3.60;;;24.10;96.70;;;;;;5003984;28;20065;-75
2021/08/10 05:30:31;;;;;;;6.45;3.10;;;24.20;96.70;;;;;;4981349;28;20474;-76
2021/08/10 05:33:00;;;;;;;5.53;3.40;;;24.30;96.70;;;;;;4960682;28;20085;-76
2021/08/10 05:35:35;;;;;;;3.65;2.70;;;24.30;96.70;;;;;;4992411;28;20038;-76
2021/08/10 05:38:05;;;;;;;4.13;2.90;;;24.40;96.70;;;;;;4980067;28;20125;-76
2021/08/10 05:40:39;;;;;;;6.45;3.30;;;24.40;96.70;;;;;;4982386;28;20529;-76
2021/08/10 05:43:08;;;;;;;8.77;4.88;;;24.50;96.70;;;;;;4985923;28;20708;-76
2021/08/10 05:45:37;;;;;;;6.15;3.90;;;24.50;96.70;;;;;;4988774;28;20408;-76
2021/08/10 05:48:10;;;;;;;8.73;5.50;;;24.50;96.70;;;;;;4987670;28;20034;-75
2021/08/10 05:50:40;;;;;;;7.82;4.72;;;24.60;96.70;;;;;;4978755;28;20114;-76
2021/08/10 05:53:09;;;;;;;5.72;4.10;;;24.70;96.70;;;;;;4963112;28;20505;-76
2021/08/10 05:55:39;;;;;;;7.55;3.95;;;24.60;96.70;;;;;;4980153;28;20586;-75
2021/08/10 05:58:08;;;;;;;7.10;3.47;;;24.70;96.70;;;;;;4986922;28;20480;-75
2021/08/10 06:00:37;;;;;;;6.25;3.13;;;24.70;96.70;;;;;;4994564;28;20536;-76
2021/08/10 06:03:11;;;;;;;4.63;2.70;;;24.80;96.70;;;;;;4986341;28;20060;-76
2021/08/10 06:05:42;;;;;;;7.40;2.88;;;24.80;96.70;;;;;;4978134;28;20065;-76
2021/08/10 06:08:11;;;;;;;5.43;3.08;;;24.70;96.70;;;;;;4964153;28;20054;-77
2021/08/10 06:10:45;;;;;;;5.00;2.92;;;24.70;96.70;;;;;;4991760;28;20684;-77
2021/08/10 06:13:13;;;;;;;4.72;2.88;;;24.70;96.70;;;;;;4977668;28;20057;-77
2021/08/10 06:15:43;;;;;;;5.43;3.05;;;24.80;96.70;;;;;;4981834;28;20047;-77
2021/08/10 06:18:12;;;;;;;7.97;3.05;;;24.90;96.70;;;;;;4981972;28;20042;-77
2021/08/10 06:20:43;;;;;;;5.60;3.03;;;24.80;96.70;;;;;;4977397;28;20498;-77
2021/08/10 06:23:11;;;;;;;4.60;2.67;;;24.80;96.70;;;;;;4970107;28;20146;-78
2021/08/10 06:25:45;;;;;;;5.45;2.70;;;24.90;96.70;;;;;;4975834;28;20077;-77
2021/08/10 06:28:16;;;;;;;3.40;2.60;;;25.10;96.70;;;;;;4989330;28;20067;-78
2021/08/10 06:30:46;;;;;;;6.45;2.63;;;25.20;96.70;;;;;;4986463;28;20053;-76
2021/08/10 06:33:16;;;;;;;5.03;2.58;;;25.30;96.70;;;;;;4993680;28;20066;-77
2021/08/10 06:35:48;;;;;;;8.15;2.72;;;25.40;96.70;;;;;;4982333;28;20061;-77
2021/08/10 06:38:17;;;;;;;4.15;2.67;;;25.50;96.70;;;;;;4974089;28;20050;-77
2021/08/10 06:40:45;;;;;;;5.72;3.42;;;25.60;96.70;;;;;;4968976;28;20042;-77
2021/08/10 06:43:14;;;;;;;6.32;3.13;;;25.60;96.70;;;;;;4983451;28;20046;-77
2021/08/10 06:45:42;;;;;;;10.52;5.72;;;25.60;96.70;;;;;;4979705;28;20042;-77
2021/08/10 06:48:13;;;;;;;12.32;5.50;;;25.70;96.70;;;;;;4984065;28;20053;-77
2021/08/10 06:50:42;;;;;;;11.98;6.88;;;25.80;96.70;;;;;;4983476;28;20049;-77
2021/08/10 06:53:14;;;;;;;13.27;7.00;;;25.90;96.70;;;;;;4996283;28;20447;-77
2021/08/10 06:55:48;;;;;;;16.15;7.25;;;25.90;96.70;;;;;;4955348;28;20464;-78
2021/08/10 06:58:16;;;;;;;11.45;5.82;;;26.00;96.70;;;;;;4977462;28;20070;-78
2021/08/10 07:00:46;;;;;;;8.25;4.10;;;26.00;96.70;;;;;;4986892;28;20132;-78
2021/08/10 07:03:16;;;;;;;9.07;3.83;;;26.10;96.70;;;;;;4986147;28;20054;-78
2021/08/10 07:05:44;;;;;;;5.53;2.97;;;26.10;96.70;;;;;;4987765;28;20046;-77
2021/08/10 07:08:15;;;;;;;6.82;2.83;;;26.20;96.70;;;;;;4988654;28;20416;-78
2021/08/10 07:10:44;;;;;;;5.53;2.55;;;26.30;96.70;;;;;;4986310;28;20050;-78
2021/08/10 07:13:12;;;;;;;5.38;2.45;;;26.30;96.70;;;;;;4977948;28;20062;-78
2021/08/10 07:15:41;;;;;;;4.10;2.50;;;26.40;96.70;;;;;;4982855;28;20053;-78
2021/08/10 07:18:14;;;;;;;9.20;2.40;;;26.40;96.70;;;;;;4973995;28;20053;-77
2021/08/10 07:20:43;;;;;;;4.85;2.50;;;26.40;96.70;;;;;;4983660;28;20045;-77
2021/08/10 07:23:12;;;;;;;4.78;2.40;;;26.50;96.70;;;;;;4969313;28;20042;-78
2021/08/10 07:25:48;;;;;;;4.75;2.40;;;26.50;96.70;;;;;;4984376;28;20042;-77
2021/08/10 07:28:23;;;;;;;6.53;2.53;;;26.50;96.70;;;;;;4974178;28;20463;-77
2021/08/10 07:30:52;;;;;;;4.15;2.10;;;26.60;96.70;;;;;;4996705;28;20424;-77
2021/08/10 07:33:22;;;;;;;4.70;2.97;;;26.70;96.70;;;;;;4983081;28;20054;-77
2021/08/10 07:35:51;;;;;;;5.63;2.10;;;26.80;96.70;;;;;;4996387;28;20151;-77
2021/08/10 07:38:20;;;;;;;8.63;2.63;;;26.80;96.70;;;;;;4974660;28;20043;-77
2021/08/10 07:40:50;;;;;;;7.07;2.50;;;26.90;96.70;;;;;;4998026;28;20033;-77
2021/08/10 07:43:21;;;;;;;4.13;2.30;;;27.00;96.70;;;;;;4986027;28;20082;-79
2021/08/10 07:45:50;;;;;;;5.60;2.58;;;27.10;96.70;;;;;;4987385;28;20050;-77
2021/08/10 07:48:21;;;;;;;3.30;2.20;;;27.20;96.70;;;;;;4982483;28;20042;-77
2021/08/10 07:50:52;;;;;;;5.07;2.67;;;27.30;96.70;;;;;;4984393;28;20054;-77
2021/08/10 07:53:25;;;;;;;3.45;2.20;;;27.40;96.70;;;;;;4980819;28;20054;-77
2021/08/10 07:55:55;;;;;;;6.95;2.75;;;27.50;96.70;;;;;;4990953;28;20451;-77
2021/08/10 07:58:23;;;;;;;7.03;2.60;;;27.50;96.70;;;;;;4978178;28;20053;-77
2021/08/10 08:00:52;;;;;;;10.95;2.70;;;27.60;96.70;;;;;;4993710;28;20050;-75
2021/08/10 08:03:23;;;;;;;5.47;2.50;;;27.60;96.70;;;;;;4991637;28;20439;-75
2021/08/10 08:05:51;;;;;;;6.60;2.45;;;27.70;96.70;;;;;;4977865;28;20042;-76
2021/08/10 08:08:20;;;;;;;4.20;2.03;;;27.70;96.70;;;;;;4996167;28;20046;-75
2021/08/10 08:10:50;;;;;;;4.82;2.40;;;27.80;96.70;;;;;;4975806;28;20397;-75
2021/08/10 08:13:29;;;;;;;3.47;2.00;;;27.90;96.70;;;;;;4994905;28;20523;-75
2021/08/10 08:15:59;;;;;;;4.97;2.10;;;27.90;96.70;;;;;;4965542;28;20051;-75
2021/08/10 08:18:28;;;;;;;7.40;2.05;;;28.00;96.70;;;;;;4982515;28;20050;-75
2021/08/10 08:20:57;;;;;;;4.50;1.77;;;28.10;96.40;;;;;;4965801;28;20070;-75
2021/08/10 08:23:31;;;;;;;4.75;2.10;;;28.20;95.70;;;;;;4990559;28;20574;-75
2021/08/10 08:26:05;;;;;;;5.60;2.17;;;28.20;95.40;;;;;;4979731;28;20145;-75
2021/08/10 08:28:38;;;;;;;4.45;2.17;;;28.20;95.60;;;;;;4993464;28;20463;-75
2021/08/10 08:31:08;;;;;;;4.78;1.70;;;28.30;94.50;;;;;;4966793;28;20492;-75
2021/08/10 08:33:37;;;;;;;5.43;2.30;;;28.30;93.70;;;;;;4990760;28;20551;-75
2021/08/10 08:36:05;;;;;;;4.55;2.00;;;28.40;94.00;;;;;;4987341;28;20034;-75
2021/08/10 08:38:34;;;;;;;3.40;2.00;;;28.50;93.70;;;;;;4969916;28;20051;-75
2021/08/10 08:41:06;;;;;;;4.22;1.90;;;28.50;93.70;;;;;;4972102;28;20484;-75
2021/08/10 08:43:34;;;;;;;5.55;2.42;;;28.50;93.50;;;;;;4989972;28;20434;-75
2021/08/10 08:46:08;;;;;;;5.03;2.20;;;28.60;93.30;;;;;;4988699;28;20392;-75
2021/08/10 08:48:41;;;;;;;6.32;3.42;;;28.70;92.80;;;;;;4992517;28;20054;-75
2021/08/10 08:51:11;;;;;;;3.72;2.58;;;28.70;93.20;;;;;;4981818;28;20042;-75
2021/08/10 08:53:51;;;;;;;3.50;2.25;;;28.80;93.00;;;;;;4991281;28;20500;-75
2021/08/10 08:56:23;;;;;;;3.42;3.13;;;28.90;92.60;;;;;;4993171;28;20044;-75
2021/08/10 08:58:55;;;;;;;4.15;2.35;;;29.00;92.90;;;;;;4982474;28;20050;-75
2021/08/10 09:01:28;;;;;;;3.90;2.22;;;29.20;92.80;;;;;;4983404;28;20046;-75
2021/08/10 09:03:57;;;;;;;7.15;4.93;;;29.40;92.40;;;;;;4981018;28;20482;-75
2021/08/10 09:06:26;;;;;;;4.97;2.25;;;29.40;92.30;;;;;;4977375;28;20046;-76
2021/08/10 09:08:56;;;;;;;8.15;5.05;;;29.40;91.90;;;;;;4984446;28;20066;-76
2021/08/10 09:11:31;;;;;;;6.82;3.13;;;29.50;91.40;;;;;;4991857;28;20046;-76
2021/08/10 09:14:03;;;;;;;4.07;2.20;;;29.50;91.30;;;;;;4984322;28;20420;-75
2021/08/10 09:16:57;;;;;;;4.45;2.08;;;29.70;91.30;;;;;;4997245;28;20097;-75
2021/08/10 09:19:40;;;;;;;5.03;2.22;;;29.80;90.80;;;;;;4983955;28;20491;-75
2021/08/10 09:22:20;;;;;;;5.00;2.03;;;29.90;90.90;;;;;;4981545;28;20089;-75
2021/08/10 09:24:52;;;;;;;6.30;2.53;;;30.00;90.30;;;;;;4984955;28;20096;-75
2021/08/10 09:27:30;;;;;;;4.40;2.28;;;30.00;90.30;;;;;;4985820;28;20482;-75
2021/08/10 09:30:00;;;;;;;4.93;2.50;;;29.90;90.40;;;;;;4995219;28;20038;-75
2021/08/10 09:32:31;;;;;;;5.03;2.15;;;29.90;90.00;;;;;;4968348;28;20061;-75
2021/08/10 09:35:08;;;;;;;5.68;2.35;;;30.00;89.30;;;;;;4989537;28;20566;-75
2021/08/10 09:37:36;;;;;;;4.50;2.65;;;30.10;89.30;;;;;;4982392;28;20042;-75
2021/08/10 09:40:28;;;;;;;6.38;2.75;;;30.30;88.60;;;;;;4992730;28;20042;-75
2021/08/10 09:43:20;;;;;;;3.47;2.20;;;30.30;89.10;;;;;;4984557;28;20066;-75
2021/08/10 09:46:03;;;;;;;7.50;2.25;;;30.40;88.20;;;;;;4981874;28;20082;-75
2021/08/10 09:48:34;;;;;;;6.22;2.55;;;30.40;87.30;;;;;;4978970;28;20640;-75
2021/08/10 09:51:07;;;;;;;5.30;2.00;;;30.50;87.10;;;;;;4976257;28;20061;-75
2021/08/10 09:53:36;;;;;;;2.78;2.00;;;30.60;87.10;;;;;;4988210;28;20121;-75
2021/08/10 09:56:06;;;;;;;3.30;1.90;;;30.80;86.50;;;;;;4991270;28;20069;-75
2021/08/10 09:58:57;;;;;;;2.60;1.80;;;30.70;86.20;;;;;;4989649;28;20045;-75
2021/08/10 10:01:38;;;;;;;5.90;2.25;;;30.70;85.70;;;;;;4964649;28;20527;-76
2021/08/10 10:04:13;;;;;;;4.97;2.15;;;30.90;85.50;;;;;;4974789;28;20054;-74
2021/08/10 10:06:47;;;;;;;4.18;2.15;;;31.00;85.30;;;;;;4972200;28;20145;-75
2021/08/10 10:09:16;;;;;;;4.15;2.17;;;31.10;84.50;;;;;;4975943;28;20070;-75
2021/08/10 10:11:48;;;;;;;4.22;2.45;;;31.10;83.30;;;;;;4979213;28;20484;-75
2021/08/10 10:14:23;;;;;;;5.70;1.80;;;31.20;83.00;;;;;;4984583;28;20047;-75
2021/08/10 10:16:52;;;;;;;4.55;1.90;;;31.20;82.40;;;;;;4981930;28;20101;-75
2021/08/10 10:19:22;;;;;;;4.50;2.03;;;31.30;82.40;;;;;;4991495;28;20424;-75
2021/08/10 10:21:53;;;;;;;5.90;2.28;;;31.30;82.10;;;;;;4969098;28;20046;-76
2021/08/10 10:24:23;;;;;;;3.88;1.95;;;31.40;82.00;;;;;;4984854;28;20517;-75
2021/08/10 10:26:54;;;;;;;2.83;1.98;;;31.60;81.70;;;;;;4971459;28;20042;-75
2021/08/10 10:29:23;;;;;;;4.28;2.00;;;31.70;81.10;;;;;;4992349;28;20130;-75
2021/08/10 10:31:52;;;;;;;3.47;1.75;;;31.80;80.80;;;;;;4989371;28;20034;-75
2021/08/10 10:34:22;;;;;;;4.38;1.90;;;31.90;82.00;;;;;;4979595;28;20113;-75
2021/08/10 10:36:51;;;;;;;4.78;2.55;;;31.90;82.00;;;;;;4986642;28;20081;-75
2021/08/10 10:39:24;;;;;;;4.55;2.15;;;32.00;79.90;;;;;;4986319;28;20433;-74
2021/08/10 10:41:55;;;;;;;3.15;1.75;;;31.90;80.10;;;;;;4972356;28;20046;-75
2021/08/10 10:44:40;;;;;;;5.40;2.38;;;31.90;80.80;;;;;;4984038;28;20089;-75
2021/08/10 10:47:34;;;;;;;2.70;1.75;;;31.90;81.60;;;;;;4973601;28;20046;-75
2021/08/10 10:50:16;;;;;;;5.45;2.03;;;32.00;79.60;;;;;;4975911;28;20336;-78
2021/08/10 10:53:08;;;;;;;2.63;1.83;;;32.20;80.70;;;;;;4986652;28;20077;-75
2021/08/10 10:55:40;;;;;;;3.88;2.17;;;32.30;80.50;;;;;;4984282;28;20054;-75
2021/08/10 10:58:26;;;;;;;3.67;1.80;;;32.50;80.00;;;;;;4968160;28;20050;-75
2021/08/10 11:01:18;;;;;;;5.63;2.10;;;32.60;79.70;;;;;;4992898;28;20033;-75
2021/08/10 11:04:09;;;;;;;2.65;1.67;;;32.80;78.10;;;;;;4989858;28;20046;-76
2021/08/10 11:06:43;;;;;;;3.53;1.67;;;33.00;78.40;;;;;;4996353;28;20042;-76
2021/08/10 11:09:56;;;;;;;4.55;1.85;;;33.00;78.70;;;;;;4987715;28;20092;-75
2021/08/10 11:12:42;;;;;;;2.92;1.90;;;33.00;78.20;;;;;;4992778;28;20042;-75
2021/08/10 11:15:11;;;;;;;;;;;33.10;78.60;;;;;;4982785;28;20050;-75
2021/08/10 11:17:40;;;;;;;4.03;2.05;;;33.30;78.10;;;;;;4972558;28;20029;-74
2021/08/10 11:20:27;;;;;;;3.58;2.20;;;33.20;78.50;;;;;;4983259;28;20108;-74
2021/08/10 11:23:34;;;;;;;2.30;1.88;;;33.10;79.20;;;;;;4979351;28;20093;-76
2021/08/10 11:26:36;;;;;;;4.43;2.17;;;33.10;78.90;;;;;;4990872;28;20133;-75
2021/08/10 11:29:06;;;;;;;7.80;2.08;;;33.10;79.00;;;;;;4895797;29;20075;-75
2021/08/10 11:31:42;;;;;;;3.17;1.95;;;33.10;78.60;;;;;;4891963;29;20524;-76
2021/08/10 11:34:29;;;;;;;5.05;2.22;;;33.10;78.80;;;;;;4907321;29;20132;-75
2021/08/10 11:37:17;;;;;;;4.80;2.63;;;33.30;78.40;;;;;;4904697;29;20075;-75
2021/08/10 11:40:12;;;;;;;3.70;1.90;;;33.50;77.20;;;;;;4893904;29;20406;-75
2021/08/10 11:42:53;;;;;;;4.28;1.70;;;33.70;76.70;;;;;;4907387;29;20059;-75
2021/08/10 11:45:24;;;;;;;3.28;2.20;;;33.70;76.30;;;;;;4895483;29;20072;-76
2021/08/10 11:48:00;;;;;;;4.57;2.13;;;33.60;76.40;;;;;;4886554;29;20132;-75
2021/08/10 11:50:31;;;;;;;5.30;2.10;;;33.80;76.80;;;;;;4889749;29;20056;-75
2021/08/10 11:52:59;;;;;;;4.97;2.13;;;33.90;76.30;;;;;;4887481;29;20047;-75
2021/08/10 11:55:30;;;;;;;6.55;2.35;;;33.80;76.50;;;;;;4879581;29;20059;-75
2021/08/10 11:58:01;;;;;;;4.25;2.40;;;33.90;75.90;;;;;;4891027;29;20087;-75
2021/08/10 12:00:31;;;;;;;6.05;2.78;;;33.90;76.90;;;;;;4962786;28;20059;-75
2021/08/10 12:03:00;;;;;;;3.53;2.30;;;34.00;77.60;;;;;;4983902;28;20038;-74
2021/08/10 12:05:31;;;;;;;6.35;2.45;;;34.10;78.20;;;;;;4984456;28;20047;-74
2021/08/10 12:08:00;;;;;;;5.68;2.55;;;34.40;77.70;;;;;;4990519;28;20045;-74
2021/08/10 12:10:33;;;;;;;4.57;2.70;;;34.50;77.40;;;;;;4996023;28;20045;-75
2021/08/10 12:13:16;;;;;;;5.30;2.28;;;34.30;76.30;;;;;;4983360;28;20173;-75
2021/08/10 12:15:45;;;;;;;7.45;2.15;;;34.20;77.00;;;;;;4972152;28;20055;-76
2021/08/10 12:18:15;;;;;;;6.75;2.50;;;34.30;77.10;;;;;;4987380;28;20524;-75
2021/08/10 12:20:58;;;;;;;5.32;2.30;;;34.30;78.00;;;;;;4982014;28;20077;-79
2021/08/10 12:23:27;;;;;;;4.57;2.47;;;34.50;77.40;;;;;;4998381;28;20046;-76
2021/08/10 12:26:08;;;;;;;6.78;2.30;;;34.60;78.00;;;;;;4989009;28;20126;-78
2021/08/10 12:28:51;;;;;;;6.10;2.50;;;34.70;77.90;;;;;;4983775;28;20055;-78
2021/08/10 12:31:19;;;;;;;3.03;2.20;;;34.60;77.90;;;;;;4977076;28;20129;-76
2021/08/10 12:33:49;;;;;;;5.88;2.80;;;34.50;77.30;;;;;;4991220;28;20040;-77
2021/08/10 12:36:17;;;;;;;5.68;2.38;;;34.50;77.50;;;;;;4984245;28;20042;-75
2021/08/10 12:38:46;;;;;;;4.97;2.28;;;34.50;77.50;;;;;;4990969;28;20043;-76
2021/08/10 12:41:31;;;;;;;4.03;2.30;;;34.50;78.00;;;;;;4974560;28;20135;-75
2021/08/10 12:44:00;;;;;;;8.00;2.13;;;34.60;78.10;;;;;;4998874;28;20069;-75
2021/08/10 12:46:30;;;;;;;6.53;2.35;;;34.70;78.10;;;;;;4980027;28;20552;-75
2021/08/10 12:49:06;;;;;;;4.65;2.45;;;34.70;78.10;;;;;;4977284;28;20051;-75
2021/08/10 12:51:53;;;;;;;4.88;2.50;;;34.70;78.20;;;;;;4988569;28;20046;-75
2021/08/10 12:54:23;;;;;;;8.75;2.90;;;34.80;78.70;;;;;;4982593;28;20140;-75
2021/08/10 12:56:53;;;;;;;6.03;2.70;;;35.00;79.00;;;;;;4987187;28;20500;-75
2021/08/10 12:59:38;;;;;;;7.78;2.60;;;35.10;78.50;;;;;;4972279;28;20082;-75
2021/08/10 13:02:07;;;;;;;4.90;2.65;;;35.10;77.80;;;;;;4982943;28;20520;-75
2021/08/10 13:04:36;;;;;;;5.43;2.55;;;35.20;78.20;;;;;;4981249;28;20075;-75
2021/08/10 13:07:15;;;;;;;7.18;2.63;;;35.30;77.90;;;;;;4983476;28;20046;-75
2021/08/10 13:09:51;;;;;;;7.57;2.85;;;35.40;78.10;;;;;;4978428;28;20042;-75
2021/08/10 13:12:21;;;;;;;5.07;2.40;;;35.60;78.30;;;;;;4990919;28;20500;-75
2021/08/10 13:15:00;;;;;;;3.60;2.55;;;35.50;78.50;;;;;;4977642;28;20077;-75